Time;durP1;ratioP1;P1;durP2;ratioP2;P2;SDS_P1;SDS_P2;PMS_P1;PMS_P2;Temp;Humidity;BMP_temperature;BMP_pressure;BME280_temperature;BME280_humidity;BME280_pressure;Samples;Min_cycle;Max_cycle;Signal;HPM_P1;HPM_P2
2022/12/11 00:02:00;;;;;;;37.40;15.40;;;;;;;-6.19;93.95;99379.02;105928;1284;73518;-67
2022/12/11 00:04:47;;;;;;;42.60;17.50;;;;;;;-6.13;93.39;99385.81;105863;1294;58005;-67
2022/12/11 00:07:35;;;;;;;36.00;15.10;;;;;;;-6.13;92.94;99386.14;105944;1284;58741;-67
2022/12/11 00:10:23;;;;;;;42.50;16.80;;;;;;;-6.15;92.75;99387.40;105910;1284;73194;-66
2022/12/11 00:13:11;;;;;;;41.20;18.80;;;;;;;-6.19;92.57;99387.14;105932;1284;68078;-67
2022/12/11 00:15:58;;;;;;;46.80;17.30;;;;;;;-6.25;91.80;99384.65;105056;1291;1002078;-67
2022/12/11 00:18:46;;;;;;;51.30;18.10;;;;;;;-6.31;91.75;99382.20;105901;1290;57593;-66
2022/12/11 00:21:34;;;;;;;53.60;20.60;;;;;;;-6.37;91.66;99380.73;105183;1293;1002671;-65
2022/12/11 00:24:22;;;;;;;45.90;17.30;;;;;;;-6.42;91.83;99379.27;105191;1290;1002891;-68
2022/12/11 00:27:11;;;;;;;49.60;17.80;;;;;;;-6.46;91.48;99375.25;105083;1292;1002345;-69
2022/12/11 00:29:59;;;;;;;56.40;21.80;;;;;;;-6.52;91.25;99373.60;104989;1297;1002996;-68
2022/12/11 00:32:47;;;;;;;64.50;24.80;;;;;;;-6.55;91.57;99373.33;105021;1287;1002421;-68
2022/12/11 00:35:40;;;;;;;59.20;23.00;;;;;;;-6.53;91.18;99375.54;104979;1297;1002424;-67
2022/12/11 00:38:28;;;;;;;47.60;18.90;;;;;;;-6.50;91.51;99379.44;105795;1294;71726;-68
2022/12/11 00:41:17;;;;;;;43.20;19.00;;;;;;;-6.45;91.60;99380.91;105706;1287;67584;-69
2022/12/11 00:44:06;;;;;;;41.80;17.90;;;;;;;-6.43;91.86;99381.38;105779;1287;70726;-68
2022/12/11 00:46:54;;;;;;;42.70;17.90;;;;;;;-6.39;92.17;99382.86;105829;1291;57233;-68
2022/12/11 00:49:45;;;;;;;47.90;18.00;;;;;;;-6.36;91.74;99382.45;104959;1297;1002211;-68
2022/12/11 00:52:40;;;;;;;41.40;15.80;;;;;;;-6.34;91.81;99382.06;104971;1291;1002887;-68
2022/12/11 00:55:28;;;;;;;42.50;17.10;;;;;;;-6.31;91.54;99380.65;104951;1292;1002407;-68
2022/12/11 00:58:18;;;;;;;49.10;19.50;;;;;;;-6.26;92.36;99382.27;105775;1294;72786;-69
2022/12/11 01:01:13;;;;;;;49.00;19.30;;;;;;;-6.18;92.20;99384.52;105663;1298;60639;-68
2022/12/11 01:04:04;;;;;;;46.20;20.00;;;;;;;-6.09;92.39;99376.23;105754;1294;60066;-68
2022/12/11 01:06:52;;;;;;;45.00;19.80;;;;;;;-5.95;92.30;99377.30;105725;1293;72774;-68
2022/12/11 01:12:46;;;;;;;47.30;19.40;;;;;;;-5.64;92.84;99375.56;105174;1285;1003019;-67
2022/12/11 01:15:44;;;;;;;38.10;15.90;;;;;;;-5.52;92.55;99367.34;105710;1292;57192;-69
2022/12/11 01:18:32;;;;;;;31.30;12.30;;;;;;;-5.43;92.14;99372.85;105737;1292;58681;-67
2022/12/11 01:21:21;;;;;;;27.90;10.90;;;;;;;-5.37;92.55;99372.35;105860;1287;74159;-68
2022/12/11 01:24:09;;;;;;;22.30;8.60;;;;;;;-5.31;92.48;99373.09;105768;1286;68462;-68
2022/12/11 01:26:57;;;;;;;25.30;11.70;;;;;;;-5.25;92.67;99371.55;105800;1286;71318;-66
2022/12/11 01:29:45;;;;;;;28.10;11.50;;;;;;;-5.19;92.66;99370.19;105732;1291;57715;-68
2022/12/11 01:32:34;;;;;;;31.80;12.90;;;;;;;-5.14;92.83;99365.06;105021;1290;1002163;-68
2022/12/11 01:35:23;;;;;;;39.40;16.20;;;;;;;-5.06;92.73;99367.98;105872;1290;72058;-68
2022/12/11 01:38:10;;;;;;;39.10;16.00;;;;;;;-4.97;92.78;99373.80;105919;1292;66508;-67
2022/12/11 01:41:01;;;;;;;34.20;14.60;;;;;;;-4.88;92.65;99371.16;105713;1294;73698;-67
2022/12/11 01:44:14;;;;;;;39.80;15.30;;;;;;;-4.79;92.50;99366.77;105668;1297;58262;-66
2022/12/11 01:47:01;;;;;;;33.10;14.40;;;;;;;-4.71;92.37;99365.01;105718;1287;58039;-67
2022/12/11 01:49:50;;;;;;;32.20;14.60;;;;;;;-4.66;92.56;99363.67;105525;1297;71567;-67
2022/12/11 01:52:40;;;;;;;33.50;14.00;;;;;;;-4.59;92.62;99361.05;105692;1293;66383;-66
2022/12/11 01:55:28;;;;;;;30.20;13.20;;;;;;;-4.54;92.32;99357.10;105689;1294;73534;-68
2022/12/11 01:58:19;;;;;;;26.50;11.10;;;;;;;-4.52;92.44;99356.19;104874;1297;1002353;-67
2022/12/11 02:01:13;;;;;;;33.30;13.30;;;;;;;-4.50;92.29;99357.33;104835;1298;1002642;-67
2022/12/11 02:04:01;;;;;;;42.40;15.50;;;;;;;-4.46;92.48;99356.88;105669;1293;73037;-67
2022/12/11 02:06:51;;;;;;;36.50;15.50;;;;;;;-4.41;92.27;99358.48;105544;1297;67660;-68
2022/12/11 02:09:42;;;;;;;38.40;14.60;;;;;;;-4.35;92.02;99358.49;105369;1290;72397;-67
2022/12/11 02:13:03;;;;;;;29.40;12.30;;;;;;;-4.29;92.31;99356.58;105562;1302;57194;-66
2022/12/11 02:16:11;;;;;;;33.00;14.60;;;;;;;-4.22;92.18;99352.61;105575;1294;60109;-67
2022/12/11 02:19:17;;;;;;;117.10;40.70;;;;;;;-4.19;91.85;99348.35;105650;1300;72808;-67
2022/12/11 02:22:12;;;;;;;306.50;94.80;;;;;;;-4.22;91.13;99343.91;105580;1294;67874;-66
2022/12/11 02:25:41;;;;;;;182.00;60.50;;;;;;;-4.23;90.98;99342.74;104806;1298;1002152;-66
2022/12/11 02:28:50;;;;;;;141.20;46.70;;;;;;;-4.26;91.29;99337.27;105665;1293;59213;-65
2022/12/11 02:31:46;;;;;;;165.20;56.60;;;;;;;-4.24;91.23;99339.67;105647;1302;60483;-65
2022/12/11 02:34:38;;;;;;;287.00;94.60;;;;;;;-4.22;91.48;99339.58;105620;1293;73271;-65
2022/12/11 02:37:30;;;;;;;225.10;77.40;;;;;;;-4.19;90.97;99336.03;105661;1288;68747;-66
2022/12/11 02:40:22;;;;;;;215.60;74.80;;;;;;;-4.13;91.10;99331.19;105711;1295;72953;-67
2022/12/11 02:43:15;;;;;;;184.30;65.70;;;;;;;-4.05;91.55;99331.65;104963;1291;1002209;-66
2022/12/11 02:46:06;;;;;;;180.10;62.60;;;;;;;-4.00;91.29;99327.33;105814;1299;60076;-66
2022/12/11 02:48:55;;;;;;;145.60;52.60;;;;;;;-3.95;91.22;99322.69;105724;1288;72460;-65
2022/12/11 02:51:43;;;;;;;115.20;45.40;;;;;;;-3.91;91.58;99325.34;105786;1293;69485;-67
2022/12/11 02:54:36;;;;;;;73.80;30.20;;;;;;;-3.86;91.30;99329.34;105113;1291;1003264;-68
2022/12/11 02:57:44;;;;;;;62.00;26.60;;;;;;;-3.84;91.25;99330.30;105046;1286;1002257;-65
2022/12/11 03:00:33;;;;;;;56.30;23.10;;;;;;;-3.80;91.43;99329.50;105706;1290;60319;-68
2022/12/11 03:03:21;;;;;;;56.10;23.60;;;;;;;-3.77;91.70;99323.16;105761;1293;74146;-64
2022/12/11 03:06:17;;;;;;;61.20;24.90;;;;;;;-3.72;91.71;99327.20;105909;1291;67919;-66
2022/12/11 03:09:06;;;;;;;50.70;21.80;;;;;;;-3.66;91.68;99327.01;105684;1292;70817;-65
2022/12/11 03:11:54;;;;;;;37.40;15.40;;;;;;;-3.58;92.28;99328.16;105676;1292;58491;-65
2022/12/11 03:14:42;;;;;;;29.30;12.30;;;;;;;-3.49;92.56;99327.52;105955;1283;58742;-69
2022/12/11 03:17:51;;;;;;;28.40;11.70;;;;;;;-3.40;93.06;99321.48;105954;1292;70252;-67
2022/12/11 03:21:13;;;;;;;20.70;9.00;;;;;;;-3.30;93.48;99318.23;105749;1292;67692;-66
2022/12/11 03:24:18;;;;;;;24.50;10.00;;;;;;;-3.19;93.78;99319.42;105642;1290;72356;-68
2022/12/11 03:27:24;;;;;;;25.80;11.30;;;;;;;-3.10;94.00;99321.06;105713;1297;57213;-68
2022/12/11 03:30:17;;;;;;;24.80;10.10;;;;;;;-3.04;93.85;99322.05;105758;1287;59620;-67
2022/12/11 03:33:14;;;;;;;31.60;12.60;;;;;;;-2.98;94.07;99316.48;105770;1291;72801;-66
2022/12/11 03:36:09;;;;;;;28.40;12.90;;;;;;;-2.91;94.11;99310.35;105656;1294;67608;-67
2022/12/11 03:39:04;;;;;;;26.40;12.40;;;;;;;-2.81;94.03;99313.45;105759;1293;72660;-67
2022/12/11 03:41:54;;;;;;;25.90;11.50;;;;;;;-2.72;94.28;99307.42;105703;1295;57492;-66
2022/12/11 03:44:46;;;;;;;24.10;10.90;;;;;;;-2.63;93.94;99308.31;105856;1292;60215;-68
2022/12/11 03:47:36;;;;;;;23.20;9.50;;;;;;;-2.56;93.57;99310.16;105775;1296;71680;-68
2022/12/11 03:50:27;;;;;;;23.30;10.70;;;;;;;-2.51;93.74;99304.06;105778;1294;68266;-68
2022/12/11 03:53:17;;;;;;;25.00;10.50;;;;;;;-2.47;93.78;99300.80;104960;1294;1002752;-67
2022/12/11 03:56:08;;;;;;;22.10;10.70;;;;;;;-2.44;93.32;99299.14;105690;1290;57160;-66
2022/12/11 03:58:55;;;;;;;19.50;8.40;;;;;;;-2.45;93.45;99296.36;105687;1294;60095;-66
2022/12/11 04:01:45;;;;;;;20.60;9.20;;;;;;;-2.45;93.24;99300.73;105127;1293;1002723;-67
2022/12/11 04:04:33;;;;;;;22.80;9.50;;;;;;;-2.47;93.15;99299.92;105057;1292;1002542;-68
2022/12/11 04:07:21;;;;;;;27.10;11.80;;;;;;;-2.50;93.05;99299.35;105763;1294;71303;-67
2022/12/11 04:10:09;;;;;;;26.40;11.40;;;;;;;-2.54;92.45;99294.29;105890;1292;57188;-65
2022/12/11 04:12:56;;;;;;;26.30;11.00;;;;;;;-2.58;92.39;99294.94;105942;1295;60063;-65
2022/12/11 04:15:44;;;;;;;26.80;11.80;;;;;;;-2.59;92.71;99295.83;105920;1291;71810;-65
2022/12/11 04:24:48;;;;;;;119.70;41.30;;;;;;;-2.69;91.82;99304.38;105917;1296;57202;-67
2022/12/11 04:27:47;;;;;;;60.30;22.80;;;;;;;-2.75;91.67;99300.76;104997;1290;1002341;-68
2022/12/11 04:30:36;;;;;;;45.80;17.20;;;;;;;-2.79;92.11;99300.54;105722;1294;74229;-68
2022/12/11 04:33:24;;;;;;;58.50;21.50;;;;;;;-2.82;92.14;99299.28;105170;1292;1002292;-69
2022/12/11 04:36:12;;;;;;;45.30;18.10;;;;;;;-2.88;91.61;99296.20;104886;1295;1002584;-67
2022/12/11 04:39:00;;;;;;;45.00;18.20;;;;;;;-2.90;91.82;99302.14;105710;1293;57879;-67
2022/12/11 04:41:48;;;;;;;40.30;18.30;;;;;;;-2.88;92.23;99296.53;105748;1290;61354;-67
2022/12/11 04:44:37;;;;;;;33.50;15.00;;;;;;;-2.89;91.63;99296.72;105691;1299;74331;-67
2022/12/11 04:47:25;;;;;;;26.60;11.90;;;;;;;-2.91;91.54;99296.97;105019;1290;1002112;-67
2022/12/11 04:50:14;;;;;;;25.80;11.90;;;;;;;-2.92;91.50;99303.44;105755;1290;71245;-67
2022/12/11 04:53:04;;;;;;;25.20;11.70;;;;;;;-2.93;91.88;99304.65;105813;1295;57220;-67
2022/12/11 04:55:53;;;;;;;25.30;11.20;;;;;;;-2.92;92.28;99296.32;105695;1291;57970;-65
2022/12/11 04:58:43;;;;;;;25.70;10.20;;;;;;;-2.93;92.19;99297.02;105799;1280;72838;-68
2022/12/11 05:01:30;;;;;;;25.40;11.40;;;;;;;-2.91;92.40;99300.27;105524;1291;67514;-67
2022/12/11 05:04:18;;;;;;;28.50;13.20;;;;;;;-2.90;92.49;99299.00;105563;1298;73819;-65
2022/12/11 05:07:08;;;;;;;29.60;12.80;;;;;;;-2.84;92.59;99301.39;105680;1294;58479;-64
2022/12/11 05:09:56;;;;;;;25.00;11.60;;;;;;;-2.78;92.73;99301.02;105565;1296;60102;-65
2022/12/11 05:12:43;;;;;;;28.70;12.10;;;;;;;-2.72;92.61;99301.88;104944;1294;1002454;-66
2022/12/11 05:15:31;;;;;;;24.60;11.70;;;;;;;-2.67;92.71;99297.70;105670;1300;68043;-66
2022/12/11 05:18:19;;;;;;;23.30;11.40;;;;;;;-2.62;92.14;99289.17;104835;1293;1014970;-69
2022/12/11 05:21:12;;;;;;;27.40;12.40;;;;;;;-2.57;92.76;99293.70;105656;1287;57280;-65
2022/12/11 05:24:00;;;;;;;20.10;8.10;;;;;;;-2.54;93.06;99289.42;105610;1294;58703;-70
2022/12/11 05:26:48;;;;;;;25.10;12.80;;;;;;;-2.53;93.49;99294.75;104876;1287;1015279;-67
2022/12/11 05:29:36;;;;;;;27.30;13.40;;;;;;;-2.49;93.78;99296.52;105644;1295;68015;-68
2022/12/11 05:32:23;;;;;;;23.00;9.90;;;;;;;-2.42;94.03;99291.73;105712;1293;73927;-66
2022/12/11 05:35:11;;;;;;;18.00;8.30;;;;;;;-2.37;94.30;99291.21;105894;1292;57738;-69
2022/12/11 05:38:00;;;;;;;22.30;10.00;;;;;;;-2.32;94.79;99290.68;105753;1283;61540;-68
2022/12/11 05:41:04;;;;;;;18.40;8.10;;;;;;;-2.25;95.06;99292.85;105893;1292;73015;-65
2022/12/11 05:43:52;;;;;;;18.30;7.00;;;;;;;-2.18;95.48;99282.70;105797;1290;68026;-68
2022/12/11 05:46:40;;;;;;;15.40;6.90;;;;;;;-2.16;95.82;99285.94;105878;1292;72458;-69
2022/12/11 05:49:28;;;;;;;13.00;6.10;;;;;;;-2.12;95.66;99286.10;105736;1304;57790;-67
2022/12/11 05:52:18;;;;;;;11.80;5.60;;;;;;;-2.05;95.67;99285.52;105763;1292;60639;-67
2022/12/11 05:55:06;;;;;;;11.70;4.30;;;;;;;-2.01;95.53;99277.02;105905;1291;71427;-66
2022/12/11 05:57:54;;;;;;;9.40;4.00;;;;;;;-1.91;95.20;99280.27;105907;1291;65201;-66
2022/12/11 06:00:42;;;;;;;9.00;3.60;;;;;;;-1.84;95.08;99277.91;105914;1298;71588;-68
2022/12/11 06:03:30;;;;;;;10.20;3.90;;;;;;;-1.80;95.07;99275.83;105903;1292;57248;-69
2022/12/11 06:06:17;;;;;;;10.60;3.90;;;;;;;-1.75;95.04;99274.27;105883;1296;60498;-65
2022/12/11 06:09:06;;;;;;;12.60;4.80;;;;;;;-1.70;94.90;99269.55;105893;1284;72779;-67
2022/12/11 06:11:54;;;;;;;10.20;4.70;;;;;;;-1.65;94.89;99256.30;105773;1292;66473;-66
2022/12/11 06:14:41;;;;;;;10.90;4.20;;;;;;;-1.62;94.61;99250.80;105891;1288;72571;-68
2022/12/11 06:17:29;;;;;;;9.70;4.10;;;;;;;-1.61;94.41;99250.38;105892;1284;57119;-68
2022/12/11 06:20:17;;;;;;;8.70;3.10;;;;;;;-1.58;94.49;99249.73;105904;1291;60438;-66
2022/12/11 06:23:05;;;;;;;8.30;3.20;;;;;;;-1.58;94.54;99251.65;105903;1291;73001;-65
2022/12/11 06:25:53;;;;;;;10.20;4.90;;;;;;;-1.57;94.52;99252.33;105802;1291;66652;-67
2022/12/11 06:28:41;;;;;;;9.50;4.00;;;;;;;-1.53;94.52;99252.34;105872;1290;72561;-67
2022/12/11 06:31:29;;;;;;;8.70;3.40;;;;;;;-1.50;94.20;99248.57;105884;1284;57307;-66
2022/12/11 06:34:17;;;;;;;8.60;3.40;;;;;;;-1.47;93.66;99254.01;105881;1287;60184;-67
2022/12/11 06:37:04;;;;;;;8.70;3.60;;;;;;;-1.45;93.72;99253.95;105802;1291;71847;-66
2022/12/11 06:39:52;;;;;;;9.20;4.30;;;;;;;-1.43;93.61;99256.29;105885;1284;67892;-67
2022/12/11 06:42:39;;;;;;;10.40;4.40;;;;;;;-1.41;93.62;99260.20;105887;1291;71100;-67
2022/12/11 06:45:27;;;;;;;9.60;4.20;;;;;;;-1.39;93.55;99260.95;105888;1298;57516;-67
2022/12/11 06:48:15;;;;;;;10.10;4.00;;;;;;;-1.34;93.41;99263.02;105889;1290;60107;-67
2022/12/11 06:51:15;;;;;;;10.20;4.00;;;;;;;-1.29;93.47;99260.91;105913;1285;72967;-66
2022/12/11 06:54:02;;;;;;;34.20;13.90;;;;;;;-1.23;93.56;99268.70;105776;1294;68848;-66
2022/12/11 06:56:50;;;;;;;14.70;5.80;;;;;;;-1.19;93.36;99266.05;105887;1292;71475;-66
2022/12/11 06:59:38;;;;;;;10.40;4.10;;;;;;;-1.16;93.09;99272.02;105883;1292;57353;-66
2022/12/11 07:02:26;;;;;;;10.00;4.20;;;;;;;-1.15;92.97;99271.84;105147;1291;1002181;-65
2022/12/11 07:05:14;;;;;;;10.10;3.80;;;;;;;-1.14;92.78;99271.42;105155;1285;1003029;-64
2022/12/11 07:08:01;;;;;;;10.00;4.20;;;;;;;-1.12;92.83;99265.60;105907;1291;66548;-69
2022/12/11 07:10:49;;;;;;;8.60;3.70;;;;;;;-1.08;92.89;99266.62;105898;1288;72535;-68
2022/12/11 07:13:37;;;;;;;10.10;3.90;;;;;;;-1.06;92.68;99262.88;105873;1284;57251;-66
2022/12/11 07:16:25;;;;;;;8.90;3.20;;;;;;;-1.01;92.77;99266.52;105882;1288;61194;-66
2022/12/11 07:19:13;;;;;;;10.30;3.80;;;;;;;-0.97;92.60;99266.73;105214;1291;1002973;-67
2022/12/11 07:22:00;;;;;;;10.80;4.20;;;;;;;-0.95;92.48;99257.73;105172;1290;1002288;-67
2022/12/11 07:24:48;;;;;;;10.00;3.90;;;;;;;-0.92;92.45;99253.96;105897;1292;72545;-68
2022/12/11 07:27:36;;;;;;;11.10;4.70;;;;;;;-0.87;92.44;99261.04;105881;1291;58762;-66
2022/12/11 07:30:24;;;;;;;9.70;3.40;;;;;;;-0.80;92.36;99262.67;105776;1286;60119;-65
2022/12/11 07:33:12;;;;;;;11.60;4.10;;;;;;;-0.75;92.18;99259.83;105790;1293;74299;-68
2022/12/11 07:36:05;;;;;;;10.10;3.50;;;;;;;-0.70;92.31;99254.91;105894;1285;66874;-68
2022/12/11 07:38:53;;;;;;;7.30;2.90;;;;;;;-0.65;91.82;99252.97;105735;1294;70389;-69
2022/12/11 07:41:41;;;;;;;8.80;3.20;;;;;;;-0.65;91.42;99251.56;105869;1292;57583;-69
2022/12/11 07:44:30;;;;;;;8.80;2.90;;;;;;;-0.63;90.88;99254.61;105861;1291;59115;-69
2022/12/11 07:47:19;;;;;;;8.20;2.80;;;;;;;-0.57;90.96;99251.55;105867;1292;71693;-71
2022/12/11 07:50:07;;;;;;;7.30;2.70;;;;;;;-0.54;90.48;99250.87;105726;1300;67753;-70
2022/12/11 07:52:54;;;;;;;8.10;2.90;;;;;;;-0.51;89.84;99242.23;105126;1284;1002538;-72
2022/12/11 07:55:42;;;;;;;7.40;2.60;;;;;;;-0.50;89.92;99234.17;105694;1301;57258;-73
2022/12/11 07:58:45;;;;;;;;;;;;;;;;;;;;;
2022/12/11 08:01:43;;;;;;;7.70;3.30;;;;;;;-0.46;89.62;99238.16;105699;1288;72140;-71
2022/12/11 08:04:34;;;;;;;6.60;2.40;;;;;;;-0.42;89.80;99232.73;105733;1292;67753;-71
2022/12/11 08:07:22;;;;;;;7.70;2.90;;;;;;;-0.39;89.19;99234.50;105745;1292;72633;-73
2022/12/11 08:10:09;;;;;;;7.10;2.60;;;;;;;-0.35;89.27;99232.97;105875;1290;57352;-71
2022/12/11 08:12:57;;;;;;;7.00;2.70;;;;;;;-0.33;89.16;99233.38;105892;1284;60131;-72
2022/12/11 08:15:45;;;;;;;8.40;2.90;;;;;;;-0.31;89.20;99230.70;105131;1297;1002397;-71
2022/12/11 08:18:36;;;;;;;8.10;2.60;;;;;;;-0.29;89.52;99234.59;105683;1295;66373;-70
2022/12/11 08:21:27;;;;;;;8.00;2.90;;;;;;;-0.23;89.70;99240.09;105664;1284;71241;-71
2022/12/11 08:24:20;;;;;;;9.00;3.00;;;;;;;-0.15;90.43;99245.80;105709;1297;59634;-73
2022/12/11 08:27:08;;;;;;;8.50;3.20;;;;;;;-0.04;90.70;99247.38;105824;1292;60283;-72
2022/12/11 08:29:56;;;;;;;6.60;2.80;;;;;;;-0.01;89.51;99246.89;105900;1290;73730;-73
2022/12/11 08:32:43;;;;;;;7.60;2.70;;;;;;;-0.01;88.70;99249.88;105797;1292;67772;-72
2022/12/11 08:35:38;;;;;;;6.90;2.90;;;;;;;0.01;88.48;99255.20;105859;1284;72465;-72
2022/12/11 08:38:26;;;;;;;7.70;2.50;;;;;;;0.03;88.47;99252.98;105760;1294;58485;-73
2022/12/11 08:41:18;;;;;;;7.60;2.90;;;;;;;0.05;88.57;99251.88;105784;1286;61493;-71
2022/12/11 08:44:12;;;;;;;7.50;2.50;;;;;;;0.06;88.33;99252.67;105886;1292;71893;-73
2022/12/11 08:47:03;;;;;;;8.00;3.00;;;;;;;0.03;88.05;99245.83;105730;1301;68013;-72
2022/12/11 08:49:51;;;;;;;8.00;2.70;;;;;;;0.03;88.28;99252.29;105844;1292;72027;-73
2022/12/11 08:52:40;;;;;;;7.20;2.50;;;;;;;0.06;88.13;99259.48;105863;1294;58464;-72
2022/12/11 08:55:28;;;;;;;7.50;2.60;;;;;;;0.10;88.19;99262.08;105861;1294;60277;-73
2022/12/11 08:58:16;;;;;;;8.10;2.90;;;;;;;0.15;88.13;99259.77;105133;1293;1002426;-73
2022/12/11 09:01:09;;;;;;;7.20;2.80;;;;;;;0.20;88.22;99254.10;105750;1292;69150;-72
2022/12/11 09:03:59;;;;;;;7.10;2.80;;;;;;;0.26;88.48;99250.00;105728;1292;72724;-72
2022/12/11 09:06:47;;;;;;;8.90;2.80;;;;;;;0.29;88.31;99248.80;105842;1287;57460;-74
2022/12/11 09:09:35;;;;;;;7.30;2.40;;;;;;;0.30;88.67;99248.54;105744;1295;60423;-72
2022/12/11 09:12:23;;;;;;;7.70;2.70;;;;;;;0.33;88.34;99248.92;105863;1285;72800;-72
2022/12/11 09:15:10;;;;;;;7.70;2.90;;;;;;;0.44;88.06;99246.00;105859;1287;65338;-73
2022/12/11 09:17:59;;;;;;;7.00;2.60;;;;;;;0.47;87.51;99243.39;105711;1293;72704;-73
2022/12/11 09:20:47;;;;;;;7.40;2.60;;;;;;;0.51;87.46;99240.04;105729;1287;57279;-72
2022/12/11 09:23:35;;;;;;;7.50;2.60;;;;;;;0.52;87.42;99237.06;105104;1295;1002411;-72
2022/12/11 09:26:24;;;;;;;6.90;2.70;;;;;;;0.50;87.31;99237.64;105721;1290;72823;-72
2022/12/11 09:29:12;;;;;;;8.80;3.10;;;;;;;0.47;87.46;99242.99;105859;1295;67731;-73
2022/12/11 09:32:00;;;;;;;9.90;3.40;;;;;;;0.42;87.69;99239.44;105688;1294;71356;-72
2022/12/11 09:34:50;;;;;;;8.50;2.90;;;;;;;0.41;87.78;99239.52;105853;1284;58023;-73
2022/12/11 09:37:38;;;;;;;9.30;2.90;;;;;;;0.41;87.79;99240.71;106004;1290;58768;-72
2022/12/11 09:40:27;;;;;;;8.10;2.80;;;;;;;0.42;87.84;99232.30;105996;1290;71989;-73
2022/12/11 09:43:19;;;;;;;8.30;3.50;;;;;;;0.42;87.93;99225.85;105979;1284;66992;-75
2022/12/11 09:46:14;;;;;;;7.00;2.40;;;;;;;0.42;88.01;99218.69;105985;1291;71452;-75
2022/12/11 09:49:10;;;;;;;8.60;2.60;;;;;;;0.41;87.81;99214.19;105789;1290;57177;-72
2022/12/11 09:52:22;;;;;;;7.40;2.80;;;;;;;0.42;87.55;99213.80;105763;1292;60327;-73
2022/12/11 09:55:23;;;;;;;8.00;2.90;;;;;;;0.40;87.44;99224.52;105902;1284;71447;-75
2022/12/11 09:58:27;;;;;;;9.60;3.30;;;;;;;0.42;87.55;99222.86;105871;1284;68882;-73
2022/12/11 10:01:23;;;;;;;9.80;4.10;;;;;;;0.47;88.32;99218.77;105884;1282;72809;-72
2022/12/11 10:04:41;;;;;;;12.20;5.30;;;;;;;0.51;88.55;99221.75;105971;1291;58910;-72
2022/12/11 10:07:38;;;;;;;11.20;4.80;;;;;;;0.53;89.14;99217.77;105971;1282;61720;-73
2022/12/11 10:10:47;;;;;;;12.50;4.60;;;;;;;0.55;89.15;99214.03;105870;1292;73871;-72
2022/12/11 10:13:44;;;;;;;11.00;4.70;;;;;;;0.55;89.28;99213.86;105970;1284;69101;-72
2022/12/11 10:16:45;;;;;;;12.90;4.60;;;;;;;0.53;89.27;99217.59;105868;1292;73680;-74
2022/12/11 10:19:33;;;;;;;16.00;6.10;;;;;;;0.53;89.15;99223.88;105979;1290;58015;-72
2022/12/11 10:22:28;;;;;;;11.60;4.60;;;;;;;0.54;89.56;99223.50;105891;1292;60298;-71
2022/12/11 10:25:24;;;;;;;12.20;5.00;;;;;;;0.56;89.55;99218.35;105976;1287;72992;-72
2022/12/11 10:28:17;;;;;;;12.10;4.80;;;;;;;0.57;89.55;99215.15;105880;1291;67782;-72
2022/12/11 10:31:50;;;;;;;12.60;5.90;;;;;;;0.59;89.23;99212.44;105072;1290;1002408;-73
2022/12/11 10:34:44;;;;;;;10.20;4.40;;;;;;;0.60;89.07;99210.24;105850;1290;57924;-72
2022/12/11 10:37:31;;;;;;;10.90;4.70;;;;;;;0.61;89.13;99202.89;105794;1285;59017;-72
2022/12/11 10:40:21;;;;;;;9.20;3.80;;;;;;;0.61;88.85;99200.25;105873;1284;70737;-72
2022/12/11 10:43:09;;;;;;;10.10;3.90;;;;;;;0.59;89.43;99194.77;105849;1287;67538;-72
2022/12/11 10:45:57;;;;;;;8.90;3.90;;;;;;;0.59;89.31;99191.44;105719;1292;72745;-72
2022/12/11 10:48:54;;;;;;;10.90;4.50;;;;;;;0.59;89.30;99187.10;105848;1292;58582;-71
2022/12/11 10:51:41;;;;;;;10.30;4.00;;;;;;;0.58;89.32;99183.30;105743;1286;58898;-72
2022/12/11 10:54:39;;;;;;;10.90;4.30;;;;;;;0.59;89.11;99179.09;105718;1288;74201;-70
2022/12/11 10:57:35;;;;;;;10.10;3.90;;;;;;;0.66;89.44;99174.16;105692;1292;67711;-70
2022/12/11 11:00:39;;;;;;;9.50;4.20;;;;;;;0.69;88.99;99171.42;105848;1287;71881;-72
2022/12/11 11:03:28;;;;;;;8.90;3.80;;;;;;;0.70;89.08;99167.54;105723;1293;57365;-71
2022/12/11 11:06:19;;;;;;;9.80;3.80;;;;;;;0.75;88.71;99163.97;105860;1287;58687;-73
2022/12/11 11:09:36;;;;;;;8.80;3.80;;;;;;;0.84;88.63;99158.42;105769;1294;71808;-71
2022/12/11 11:12:27;;;;;;;9.10;3.60;;;;;;;0.93;88.00;99152.02;105738;1287;66257;-72
2022/12/11 11:15:29;;;;;;;8.90;3.60;;;;;;;0.97;87.74;99152.30;105875;1287;73593;-71
2022/12/11 11:18:29;;;;;;;8.40;3.20;;;;;;;1.05;87.02;99150.34;105664;1295;57314;-70
2022/12/11 11:21:20;;;;;;;8.00;3.40;;;;;;;1.19;86.80;99149.74;105713;1294;60408;-71
2022/12/11 11:24:28;;;;;;;6.60;2.70;;;;;;;1.20;85.28;99142.54;105675;1297;73146;-71
2022/12/11 11:27:44;;;;;;;7.80;2.90;;;;;;;1.13;84.07;99141.70;105725;1286;68109;-74
2022/12/11 11:30:39;;;;;;;8.40;2.70;;;;;;;1.01;83.33;99138.14;105673;1301;73894;-72
2022/12/11 11:33:29;;;;;;;7.00;2.50;;;;;;;0.95;83.38;99136.52;105084;1291;1002919;-71
2022/12/11 11:36:27;;;;;;;7.20;2.30;;;;;;;0.89;83.25;99133.20;105718;1292;61622;-71
2022/12/11 11:39:28;;;;;;;6.20;2.10;;;;;;;0.82;83.09;99135.83;105863;1285;72752;-70
2022/12/11 11:42:36;;;;;;;7.10;2.50;;;;;;;0.79;83.69;99128.11;105656;1294;69146;-71
2022/12/11 11:45:32;;;;;;;7.00;2.50;;;;;;;0.75;83.77;99122.41;105697;1286;72816;-72
2022/12/11 11:48:47;;;;;;;7.40;2.20;;;;;;;0.70;84.09;99116.02;105852;1277;57223;-71
2022/12/11 11:51:54;;;;;;;7.60;2.60;;;;;;;0.68;84.38;99112.06;105856;1284;58758;-72
2022/12/11 11:55:04;;;;;;;6.90;2.20;;;;;;;0.70;84.27;99109.91;105859;1294;74295;-70
2022/12/11 11:58:14;;;;;;;7.30;2.30;;;;;;;0.72;84.52;99101.79;105717;1293;69103;-70
2022/12/11 12:01:01;;;;;;;7.00;2.70;;;;;;;0.75;84.39;99098.82;105708;1292;74057;-73
2022/12/11 12:03:50;;;;;;;8.40;2.70;;;;;;;0.76;84.42;99093.00;105832;1295;57338;-72
2022/12/11 12:07:13;;;;;;;6.90;2.40;;;;;;;0.70;83.99;99090.02;105697;1294;60332;-71
2022/12/11 12:10:44;;;;;;;7.10;2.40;;;;;;;0.67;84.39;99092.95;105719;1286;74171;-71
2022/12/11 12:14:00;;;;;;;8.20;2.50;;;;;;;0.67;84.45;99085.59;105726;1285;68403;-71
2022/12/11 12:17:08;;;;;;;7.00;2.40;;;;;;;0.61;84.85;99090.83;105864;1292;71482;-72
2022/12/11 12:20:23;;;;;;;7.80;2.90;;;;;;;0.58;84.82;99090.44;105831;1294;59014;-71
2022/12/11 12:24:00;;;;;;;10.10;3.40;;;;;;;0.59;85.35;99089.33;105714;1292;60535;-73
2022/12/11 12:27:18;;;;;;;7.00;2.50;;;;;;;0.66;85.97;99086.85;104562;1300;1002486;-71
2022/12/11 12:30:34;;;;;;;6.80;2.50;;;;;;;0.63;85.11;99085.63;105265;1300;66692;-72
2022/12/11 12:33:28;;;;;;;7.50;2.60;;;;;;;0.58;84.98;99079.95;105263;1300;72517;-72
2022/12/11 12:36:59;;;;;;;14.60;6.60;;;;;;;0.54;85.32;99085.23;105320;1300;57972;-73
2022/12/11 12:40:31;;;;;;;7.10;2.40;;;;;;;0.50;85.58;99080.39;105371;1293;59871;-72
2022/12/11 12:44:05;;;;;;;7.00;2.70;;;;;;;0.41;85.32;99076.66;104513;1300;1002018;-72
2022/12/11 12:47:13;;;;;;;6.20;2.10;;;;;;;0.34;85.83;99072.30;105312;1299;68677;-70
2022/12/11 12:50:03;;;;;;;8.10;2.00;;;;;;;0.29;86.13;99069.02;104563;1293;1002878;-72
2022/12/11 12:52:53;;;;;;;7.60;2.80;;;;;;;0.27;86.17;99068.64;105324;1306;58742;-71
2022/12/11 12:55:41;;;;;;;7.00;2.40;;;;;;;0.28;86.42;99066.14;104599;1292;1003011;-69
2022/12/11 12:58:35;;;;;;;7.90;2.50;;;;;;;0.29;85.98;99061.92;105330;1300;72784;-71
2022/12/11 13:01:26;;;;;;;10.50;2.90;;;;;;;0.28;85.56;99059.19;105372;1293;68811;-70
2022/12/11 13:04:36;;;;;;;8.30;3.00;;;;;;;0.24;85.03;99058.16;105699;1292;73857;-70
2022/12/11 13:08:04;;;;;;;6.60;2.10;;;;;;;0.16;84.31;99055.77;105024;1295;1002213;-70
2022/12/11 13:11:07;;;;;;;6.30;2.10;;;;;;;0.08;84.01;99054.09;105755;1295;60385;-69
2022/12/11 13:14:26;;;;;;;6.60;2.10;;;;;;;0.02;84.59;99054.05;105913;1284;73153;-70
2022/12/11 13:17:20;;;;;;;7.80;2.60;;;;;;;-0.07;84.90;99049.58;105796;1286;69105;-70
2022/12/11 13:20:18;;;;;;;7.10;2.60;;;;;;;-0.08;85.21;99048.08;105899;1291;72464;-70
2022/12/11 13:23:06;;;;;;;8.00;2.60;;;;;;;-0.17;84.77;99047.27;105752;1290;57295;-70
2022/12/11 13:26:02;;;;;;;6.50;1.90;;;;;;;-0.23;84.70;99049.84;105902;1291;60533;-69
2022/12/11 13:28:51;;;;;;;7.30;2.30;;;;;;;-0.30;85.26;99046.90;105859;1293;71592;-72
2022/12/11 13:31:44;;;;;;;7.10;2.70;;;;;;;-0.36;85.66;99049.96;105787;1291;67747;-72